Observation data for Guthrie on 03/10/2018      Previous  Date  Next       Current Mesonet Observations  Soil Data  Daily Summary Page  Observations in Plain Language
KPFS 100600Z 35006KT 13/M04 A2977 RMK A01 T01301039  RH  031%=      5-min Rain = 0
KPFS 100605Z 35007KT 13/M04 A2977 RMK A01 T01311037  RH  031%=      5-min Rain = 0
KPFS 100610Z 35007KT 13/M04 A2978 RMK A01 T01341036  RH  031%=      5-min Rain = 0
KPFS 100615Z 35006KT 13/M04 A2978 RMK A01 T01341035  RH  031%=      5-min Rain = 0
KPFS 100620Z 36007KT 14/M03 A2978 RMK A01 T01351034  RH  031%=      5-min Rain = 0
KPFS 100625Z 36006KT 13/M03 A2978 RMK A01 T01341033  RH  031%=      5-min Rain = 0
KPFS 100630Z 35008KT 14/M03 A2978 RMK A01 T01371032  RH  031%=      5-min Rain = 0
KPFS 100635Z 36007KT 14/M03 A2978 RMK A01 T01391031  RH  031%=      5-min Rain = 0
KPFS 100640Z 33004KT 13/M03 A2978 RMK A01 T01341032  RH  032%=      5-min Rain = 0
KPFS 100645Z 35006KT 13/M03 A2978 RMK A01 T01321032  RH  032%=      5-min Rain = 0
KPFS 100650Z 35007KT 14/M03 A2978 RMK A01 T01371029  RH  032%=      5-min Rain = 0
KPFS 100655Z 01008KT 14/M03 A2977 RMK A01 T01391029  RH  032%=      5-min Rain = 0
KPFS 100700Z 01007KT 14/M03 A2977 RMK A01 T01351029  RH  032%=      5-min Rain = 0
KPFS 100705Z 02008KT 13/M03 A2977 RMK A01 T01311029  RH  033%=      5-min Rain = 0
KPFS 100710Z 01009KT 13/M03 A2977 RMK A01 T01341029  RH  033%=      5-min Rain = 0
KPFS 100715Z 02010KT 13/M03 A2976 RMK A01 T01341028  RH  033%=      5-min Rain = 0
KPFS 100720Z 01006KT 13/M03 A2976 RMK A01 T01311029  RH  033%=      5-min Rain = 0
KPFS 100725Z 02007KT 13/M03 A2976 RMK A01 T01291029  RH  034%=      5-min Rain = 0
KPFS 100730Z 02008KT 13/M03 A2976 RMK A01 T01261030  RH  034%=      5-min Rain = 0
KPFS 100735Z 01007KT 13/M03 A2976 RMK A01 T01261029  RH  034%=      5-min Rain = 0
KPFS 100740Z 00006KT 13/M03 A2976 RMK A01 T01261028  RH  034%=      5-min Rain = 0
KPFS 100745Z 36007KT 13/M03 A2976 RMK A01 T01261028  RH  034%=      5-min Rain = 0
KPFS 100750Z 36007KT 13/M03 A2976 RMK A01 T01291027  RH  034%=      5-min Rain = 0
KPFS 100755Z 35006KT 13/M03 A2977 RMK A01 T01301027  RH  034%=      5-min Rain = 0
KPFS 100800Z 33003KT 13/M03 A2977 RMK A01 T01261028  RH  035%=      5-min Rain = 0
KPFS 100805Z 22002KT 12/M03 A2977 RMK A01 T01161030  RH  036%=      5-min Rain = 0
KPFS 100810Z 23003KT 11/M03 A2977 RMK A01 T01111029  RH  038%=      5-min Rain = 0
KPFS 100815Z 25002KT 11/M03 A2977 RMK A01 T01101028  RH  038%=      5-min Rain = 0
KPFS 100820Z 28002KT 11/M03 A2976 RMK A01 T01121026  RH  038%=      5-min Rain = 0
KPFS 100825Z 31003KT 11/M03 A2976 RMK A01 T01131027  RH  038%=      5-min Rain = 0
KPFS 100830Z 30003KT 11/M03 A2976 RMK A01 T01141027  RH  038%=      5-min Rain = 0
KPFS 100835Z 30002KT 12/M03 A2976 RMK A01 T01151028  RH  037%=      5-min Rain = 0
KPFS 100840Z 29002KT 11/M03 A2976 RMK A01 T01131029  RH  037%=      5-min Rain = 0
KPFS 100845Z 32003KT 11/M03 A2975 RMK A01 T01111028  RH  038%=      5-min Rain = 0
KPFS 100850Z 29003KT 11/M03 A2975 RMK A01 T01101029  RH  038%=      5-min Rain = 0
KPFS 100855Z 21003KT 10/M03 A2976 RMK A01 T01001032  RH  040%=      5-min Rain = 0
KPFS 100900Z 20003KT 09/M03 A2975 RMK A01 T00891033  RH  043%=      5-min Rain = 0
KPFS 100905Z 21005KT 09/M03 A2975 RMK A01 T00851034  RH  043%=      5-min Rain = 0
KPFS 100910Z 20005KT 08/M04 A2975 RMK A01 T00821035  RH  044%=      5-min Rain = 0
KPFS 100915Z 21004KT 08/M03 A2975 RMK A01 T00831034  RH  044%=      5-min Rain = 0
KPFS 100920Z 25003KT 09/M03 A2975 RMK A01 T00851034  RH  043%=      5-min Rain = 0
KPFS 100925Z 29002KT 09/M03 A2974 RMK A01 T00921032  RH  042%=      5-min Rain = 0
KPFS 100930Z 33003KT 10/M03 A2974 RMK A01 T00951031  RH  041%=      5-min Rain = 0
KPFS 100935Z 34004KT 09/M03 A2974 RMK A01 T00941033  RH  041%=      5-min Rain = 0
KPFS 100940Z 34004KT 09/M04 A2973 RMK A01 T00881035  RH  042%=      5-min Rain = 0
KPFS 100945Z 34004KT 09/M04 A2973 RMK A01 T00861035  RH  043%=      5-min Rain = 0
KPFS 100950Z 32004KT 09/M04 A2973 RMK A01 T00891035  RH  042%=      5-min Rain = 0
KPFS 100955Z 32004KT 09/M04 A2973 RMK A01 T00901037  RH  041%=      5-min Rain = 0
KPFS 101000Z 31004KT 09/M04 A2973 RMK A01 T00871039  RH  041%=      5-min Rain = 0
KPFS 101005Z 31003KT 08/M04 A2973 RMK A01 T00831040  RH  042%=      5-min Rain = 0
KPFS 101010Z 27003KT 08/M04 A2973 RMK A01 T00821041  RH  042%=      5-min Rain = 0
KPFS 101015Z 24002KT 08/M04 A2973 RMK A01 T00821039  RH  043%=      5-min Rain = 0
KPFS 101020Z 22002KT 09/M04 A2973 RMK A01 T00861037  RH  042%=      5-min Rain = 0
KPFS 101025Z 20003KT 09/M04 A2973 RMK A01 T00871037  RH  042%=      5-min Rain = 0
KPFS 101030Z 20002KT 08/M04 A2973 RMK A01 T00821039  RH  043%=      5-min Rain = 0
KPFS 101035Z 20003KT 08/M04 A2973 RMK A01 T00771040  RH  044%=      5-min Rain = 0
KPFS 101040Z 20003KT 07/M04 A2973 RMK A01 T00741040  RH  045%=      5-min Rain = 0
KPFS 101045Z 23003KT 08/M04 A2973 RMK A01 T00761040  RH  044%=      5-min Rain = 0
KPFS 101050Z 23002KT 08/M04 A2973 RMK A01 T00791039  RH  044%=      5-min Rain = 0
KPFS 101055Z 24002KT 08/M04 A2973 RMK A01 T00821039  RH  042%=      5-min Rain = 0
KPFS 101100Z 21004KT 08/M04 A2974 RMK A01 T00811040  RH  043%=      5-min Rain = 0
KPFS 101105Z 19008KT 07/M04 A2975 RMK A01 T00721041  RH  045%=      5-min Rain = 0
KPFS 101110Z 18008G14KT 07/M04 A2976 RMK A01 T00691043  RH  045%=      5-min Rain = 0
KPFS 101115Z 20008KT 07/M04 A2976 RMK A01 T00701044  RH  045%=      5-min Rain = 0
KPFS 101120Z 21006KT 08/M04 A2976 RMK A01 T00751044  RH  043%=      5-min Rain = 0
KPFS 101125Z 20006KT 08/M04 A2976 RMK A01 T00761044  RH  043%=      5-min Rain = 0
KPFS 101130Z 22006KT 08/M04 A2976 RMK A01 T00801043  RH  042%=      5-min Rain = 0
KPFS 101135Z 21006KT 08/M04 A2976 RMK A01 T00811043  RH  042%=      5-min Rain = 0
KPFS 101140Z 20006KT 08/M04 A2976 RMK A01 T00781043  RH  043%=      5-min Rain = 0
KPFS 101145Z 21007KT 08/M04 A2977 RMK A01 T00801043  RH  042%=      5-min Rain = 0
KPFS 101150Z 21006KT 08/M04 A2976 RMK A01 T00781044  RH  042%=      5-min Rain = 0
KPFS 101155Z 22005KT 08/M05 A2977 RMK A01 T00761045  RH  042%=      5-min Rain = 0
KPFS 101200Z 22005KT 07/M05 A2977 RMK A01 T00701046  RH  044%=      5-min Rain = 0
KPFS 101205Z 23006KT 07/M05 A2977 RMK A01 T00681046  RH  044%=      5-min Rain = 0
KPFS 101210Z 25004KT 07/M05 A2977 RMK A01 T00721045  RH  044%=      5-min Rain = 0
KPFS 101215Z 23004KT 08/M04 A2976 RMK A01 T00801044  RH  042%=      5-min Rain = 0
KPFS 101220Z 22004KT 08/M04 A2977 RMK A01 T00781044  RH  042%=      5-min Rain = 0
KPFS 101225Z 25003KT 08/M04 A2977 RMK A01 T00761044  RH  043%=      5-min Rain = 0
KPFS 101230Z 25002KT 08/M04 A2977 RMK A01 T00781043  RH  042%=      5-min Rain = 0
KPFS 101235Z 27002KT 08/M04 A2977 RMK A01 T00801043  RH  042%=      5-min Rain = 0
KPFS 101240Z 27002KT 08/M04 A2977 RMK A01 T00821042  RH  042%=      5-min Rain = 0
KPFS 101245Z 27003KT 09/M04 A2977 RMK A01 T00861041  RH  041%=      5-min Rain = 0
KPFS 101250Z 28003KT 09/M04 A2976 RMK A01 T00861041  RH  041%=      5-min Rain = 0
KPFS 101255Z 28002KT 09/M04 A2976 RMK A01 T00851041  RH  041%=      5-min Rain = 0
KPFS 101300Z 30001KT 08/M04 A2976 RMK A01 T00841042  RH  041%=      5-min Rain = 0
KPFS 101305Z 33001KT 08/M04 A2976 RMK A01 T00841042  RH  041%=      5-min Rain = 0
KPFS 101310Z 35001KT 08/M04 A2976 RMK A01 T00831042  RH  042%=      5-min Rain = 0
KPFS 101315Z 29001KT 08/M04 A2976 RMK A01 T00801042  RH  042%=      5-min Rain = 0
KPFS 101320Z 30001KT 08/M04 A2977 RMK A01 T00831042  RH  042%=      5-min Rain = 0
KPFS 101325Z 28000KT 09/M04 A2977 RMK A01 T00871042  RH  040%=      5-min Rain = 0
KPFS 101330Z 28001KT 09/M04 A2977 RMK A01 T00911042  RH  039%=      5-min Rain = 0
KPFS 101335Z 24000KT 10/M04 A2977 RMK A01 T00951042  RH  038%=      5-min Rain = 0
KPFS 101340Z 20002KT 10/M04 A2977 RMK A01 T00951042  RH  038%=      5-min Rain = 0
KPFS 101345Z 21002KT 10/M04 A2977 RMK A01 T00961042  RH  038%=      5-min Rain = 0
KPFS 101350Z 20002KT 10/M04 A2977 RMK A01 T00971042  RH  038%=      5-min Rain = 0
KPFS 101355Z 20001KT 10/M04 A2978 RMK A01 T00981041  RH  038%=      5-min Rain = 0
KPFS 101400Z 20002KT 10/M04 A2978 RMK A01 T01011040  RH  037%=      5-min Rain = 0
KPFS 101405Z 21001KT 10/M04 A2978 RMK A01 T01031040  RH  037%=      5-min Rain = 0
KPFS 101410Z 03003KT 11/M04 A2978 RMK A01 T01051037  RH  037%=      5-min Rain = 0
KPFS 101415Z 03004KT 10/M04 A2979 RMK A01 T01011035  RH  039%=      5-min Rain = 0
KPFS 101420Z 03005KT 10/M04 A2979 RMK A01 T00991035  RH  039%=      5-min Rain = 0
KPFS 101425Z 01006KT 10/M03 A298 RMK A01 T01001034  RH  039%=      5-min Rain = 0
KPFS 101430Z 35005KT 11/M03 A298 RMK A01 T01091030  RH  038%=      5-min Rain = 0
KPFS 101435Z 33004KT 12/M03 A298 RMK A01 T01181026  RH  037%=      5-min Rain = 0
KPFS 101440Z 31004KT 12/M02 A298 RMK A01 T01211024  RH  037%=      5-min Rain = 0
KPFS 101445Z 31003KT 12/M02 A298 RMK A01 T01231023  RH  036%=      5-min Rain = 0
KPFS 101450Z 27001KT 13/M02 A298 RMK A01 T01271022  RH  036%=      5-min Rain = 0
KPFS 101455Z 25001KT 13/M02 A298 RMK A01 T01311022  RH  035%=      5-min Rain = 0
KPFS 101500Z 27002KT 14/M02 A298 RMK A01 T01371022  RH  034%=      5-min Rain = 0
KPFS 101505Z 28002KT 14/M02 A298 RMK A01 T01401023  RH  033%=      5-min Rain = 0
KPFS 101510Z 25001KT 15/M02 A2979 RMK A01 T01451022  RH  032%=      5-min Rain = 0
KPFS 101515Z 24001KT 15/M02 A2979 RMK A01 T01531022  RH  030%=      5-min Rain = 0
KPFS 101520Z 23002KT 16/M02 A2979 RMK A01 T01591022  RH  029%=      5-min Rain = 0
KPFS 101525Z 26001KT 17/M02 A2979 RMK A01 T01661022  RH  028%=      5-min Rain = 0
KPFS 101530Z 33002KT 17/M02 A2979 RMK A01 T01741024  RH  026%=      5-min Rain = 0
KPFS 101535Z 30002KT 18/M03 A2979 RMK A01 T01771027  RH  025%=      5-min Rain = 0
KPFS 101540Z 22002KT 18/M03 A2979 RMK A01 T01801025  RH  025%=      5-min Rain = 0
KPFS 101545Z 20002KT 19/M03 A2979 RMK A01 T01851025  RH  024%=      5-min Rain = 0
KPFS 101550Z 22002KT 19/M03 A2979 RMK A01 T01901028  RH  023%=      5-min Rain = 0
KPFS 101555Z 21003KT 19/M03 A2979 RMK A01 T01921030  RH  022%=      5-min Rain = 0
KPFS 101600Z 23004KT 20/M03 A2979 RMK A01 T01971032  RH  021%=      5-min Rain = 0
KPFS 101605Z 23006KT 20/M04 A2979 RMK A01 T02021038  RH  020%=      5-min Rain = 0
KPFS 101610Z 28004KT 20/M03 A2979 RMK A01 T01991031  RH  021%=      5-min Rain = 0
KPFS 101615Z 27004KT 20/M04 A2979 RMK A01 T02021038  RH  020%=      5-min Rain = 0
KPFS 101620Z 27004KT 20/M04 A2978 RMK A01 T02041043  RH  019%=      5-min Rain = 0
KPFS 101625Z 26005KT 21/M04 A2978 RMK A01 T02051043  RH  019%=      5-min Rain = 0
KPFS 101630Z 24005KT 21/M05 A2978 RMK A01 T02071045  RH  018%=      5-min Rain = 0
KPFS 101635Z 23005KT 21/M05 A2978 RMK A01 T02071046  RH  018%=      5-min Rain = 0
KPFS 101640Z 26005KT 21/M05 A2978 RMK A01 T02111048  RH  017%=      5-min Rain = 0
KPFS 101645Z 26005KT 21/M05 A2977 RMK A01 T02091050  RH  017%=      5-min Rain = 0
KPFS 101650Z 24004KT 21/M05 A2977 RMK A01 T02121049  RH  017%=      5-min Rain = 0
KPFS 101655Z 26005KT 22/M05 A2977 RMK A01 T02201050  RH  016%=      5-min Rain = 0
KPFS 101700Z 27006KT 22/M05 A2977 RMK A01 T02231053  RH  016%=      5-min Rain = 0
KPFS 101705Z 27006KT 22/M05 A2978 RMK A01 T02211054  RH  016%=      5-min Rain = 0
KPFS 101710Z 29004KT 23/M06 A2978 RMK A01 T02251057  RH  015%=      5-min Rain = 0
KPFS 101715Z 24005KT 24/M06 A2977 RMK A01 T02391055  RH  014%=      5-min Rain = 0
KPFS 101720Z 25004KT 24/M06 A2977 RMK A01 T02391059  RH  014%=      5-min Rain = 0
KPFS 101725Z 25004KT 24/M06 A2977 RMK A01 T02361059  RH  014%=      5-min Rain = 0
KPFS 101730Z 26004KT 24/M06 A2977 RMK A01 T02391061  RH  013%=      5-min Rain = 0
KPFS 101735Z 25006KT 24/M06 A2977 RMK A01 T02441061  RH  013%=      5-min Rain = 0
KPFS 101740Z 29008KT 25/M06 A2976 RMK A01 T02451064  RH  013%=      5-min Rain = 0
KPFS 101745Z 32006KT 25/M06 A2976 RMK A01 T02461064  RH  012%=      5-min Rain = 0
KPFS 101750Z 29004KT 25/M06 A2976 RMK A01 T02461063  RH  012%=      5-min Rain = 0
KPFS 101755Z 28003G9KT 25/M07 A2976 RMK A01 T02521065  RH  012%=      5-min Rain = 0
KPFS 101800Z 28005KT 26/M07 A2976 RMK A01 T02581069  RH  011%=      5-min Rain = 0
KPFS 101805Z 29004KT 26/M07 A2976 RMK A01 T02591072  RH  011%=      5-min Rain = 0
KPFS 101810Z 32006G11KT 26/M08 A2976 RMK A01 T02591079  RH  010%=      5-min Rain = 0
KPFS 101815Z 29004G9KT 26/M08 A2976 RMK A01 T02631078  RH  010%=      5-min Rain = 0
KPFS 101820Z 29005KT 27/M08 A2975 RMK A01 T02671077  RH  010%=      5-min Rain = 0
KPFS 101825Z 33005G10KT 27/M08 A2975 RMK A01 T02661078  RH  010%=      5-min Rain = 0
KPFS 101830Z 36002KT 27/M08 A2975 RMK A01 T02711077  RH  010%=      5-min Rain = 0
KPFS 101835Z 31002G7KT 27/M08 A2975 RMK A01 T02721082  RH  009%=      5-min Rain = 0
KPFS 101840Z 32003KT 27/M08 A2974 RMK A01 T02711084  RH  009%=      5-min Rain = 0
KPFS 101845Z 33004G9KT 28/M08 A2974 RMK A01 T02791081  RH  009%=      5-min Rain = 0
KPFS 101850Z 28007KT 28/M09 A2974 RMK A01 T02831087  RH  008%=      5-min Rain = 0
KPFS 101855Z 34005KT 28/M08 A2973 RMK A01 T02821084  RH  009%=      5-min Rain = 0
KPFS 101900Z 04003KT 28/M09 A2973 RMK A01 T02781087  RH  009%=      5-min Rain = 0
KPFS 101905Z 02004G11KT 29/M08 A2973 RMK A01 T02871082  RH  009%=      5-min Rain = 0
KPFS 101910Z 06006KT 29/M07 A2973 RMK A01 T02871071  RH  009%=      5-min Rain = 0
KPFS 101915Z 03007KT 28/M07 A2972 RMK A01 T02841072  RH  009%=      5-min Rain = 0
KPFS 101920Z 11003KT 28/M08 A2972 RMK A01 T02831083  RH  009%=      5-min Rain = 0
KPFS 101925Z 15003KT 29/M09 A2972 RMK A01 T02911085  RH  008%=      5-min Rain = 0
KPFS 101930Z 04007KT 29/M08 A2972 RMK A01 T02941082  RH  008%=      5-min Rain = 0
KPFS 101935Z 01008G13KT 29/M09 A2971 RMK A01 T02911087  RH  008%=      5-min Rain = 0
KPFS 101940Z 05005KT 29/M09 A2971 RMK A01 T02911088  RH  008%=      5-min Rain = 0
KPFS 101945Z 03007KT 29/M09 A297 RMK A01 T02921093  RH  008%=      5-min Rain = 0
KPFS 101950Z 04004G10KT 29/M10 A297 RMK A01 T02861101  RH  007%=      5-min Rain = 0
KPFS 101955Z 02006KT 29/M10 A297 RMK A01 T02901100  RH  007%=      5-min Rain = 0
KPFS 102000Z 35004G9KT 29/M11 A297 RMK A01 T02931105  RH  007%=      5-min Rain = 0
KPFS 102005Z 01006KT 29/M10 A297 RMK A01 T02901103  RH  007%=      5-min Rain = 0
KPFS 102010Z 32005KT 29/M11 A297 RMK A01 T02911105  RH  007%=      5-min Rain = 0
KPFS 102015Z 31003KT 29/M11 A2969 RMK A01 T02911109  RH  007%=      5-min Rain = 0
KPFS 102020Z 32005KT 30/M11 A2969 RMK A01 T02951110  RH  007%=      5-min Rain = 0
KPFS 102025Z 36006G11KT 30/M11 A2969 RMK A01 T02961113  RH  006%=      5-min Rain = 0
KPFS 102030Z 01004KT 30/M11 A2968 RMK A01 T03001113  RH  006%=      5-min Rain = 0
KPFS 102035Z 02006KT 30/M12 A2968 RMK A01 T03031118  RH  006%=      5-min Rain = 0
KPFS 102040Z 03008G13KT 30/M12 A2968 RMK A01 T03021121  RH  006%=      5-min Rain = 0
KPFS 102045Z 02007G12KT 30/M12 A2968 RMK A01 T02981124  RH  006%=      5-min Rain = 0
KPFS 102050Z 35009KT 30/M13 A2968 RMK A01 T03011125  RH  006%=      5-min Rain = 0
KPFS 102055Z 02008KT 30/M13 A2968 RMK A01 T03001127  RH  006%=      5-min Rain = 0
KPFS 102100Z 03006KT 30/M13 A2968 RMK A01 T03011129  RH  005%=      5-min Rain = 0
KPFS 102105Z 35007G12KT 30/M13 A2967 RMK A01 T02981132  RH  005%=      5-min Rain = 0
KPFS 102110Z 36002G8KT 30/M14 A2968 RMK A01 T02991144  RH  005%=      5-min Rain = 0
KPFS 102115Z 36002KT 31/M14 A2967 RMK A01 T03071140  RH  005%=      5-min Rain = 0
KPFS 102120Z 33004KT 31/M14 A2967 RMK A01 T03061138  RH  005%=      5-min Rain = 0
KPFS 102125Z 31002KT 30/M14 A2967 RMK A01 T03031139  RH  005%=      5-min Rain = 0
KPFS 102130Z 31001KT 31/M14 A2967 RMK A01 T03051142  RH  005%=      5-min Rain = 0
KPFS 102135Z 33002KT 31/M15 A2967 RMK A01 T03121146  RH  004%=      5-min Rain = 0
KPFS 102140Z 00005KT 31/M15 A2967 RMK A01 T03091148  RH  004%=      5-min Rain = 0
KPFS 102145Z 02002KT 31/M15 A2967 RMK A01 T03061151  RH  004%=      5-min Rain = 0
KPFS 102150Z 30002KT 31/M15 A2967 RMK A01 T03051153  RH  004%=      5-min Rain = 0
KPFS 102155Z 27004KT 31/M15 A2967 RMK A01 T03111150  RH  004%=      5-min Rain = 0
KPFS 102200Z 25007G12KT 31/M18 A2967 RMK A01 T03101175  RH  004%=      5-min Rain = 0
KPFS 102205Z 24009G15KT 32/M19 A2967 RMK A01 T03161187  RH  003%=      5-min Rain = 0
KPFS 102210Z 28007G18KT 32/M18 A2967 RMK A01 T03181182  RH  003%=      5-min Rain = 0
KPFS 102215Z 27007G13KT 32/M19 A2967 RMK A01 T03151191  RH  003%=      5-min Rain = 0
KPFS 102220Z 26005G11KT 31/M19 A2967 RMK A01 T03121192  RH  003%=      5-min Rain = 0
KPFS 102225Z 32004G9KT 31/M19 A2967 RMK A01 T03091193  RH  003%=      5-min Rain = 0
KPFS 102230Z 26005G12KT 31/M19 A2967 RMK A01 T03131193  RH  003%=      5-min Rain = 0
KPFS 102235Z 25008KT 32/M20 A2967 RMK A01 T03151197  RH  003%=      5-min Rain = 0
KPFS 102240Z 26007KT 31/M20 A2967 RMK A01 T03131195  RH  003%=      5-min Rain = 0
KPFS 102245Z 28008G13KT 31/M20 A2967 RMK A01 T03141195  RH  003%=      5-min Rain = 0
KPFS 102250Z 30012G19KT 30/M17 A2967 RMK A01 T03041166  RH  004%=      5-min Rain = 0
KPFS 102255Z 30011G21KT 30/M14 A2967 RMK A01 T02951136  RH  005%=      5-min Rain = 0
KPFS 102300Z 03006KT 30/M14 A2967 RMK A01 T02971137  RH  005%=      5-min Rain = 0
KPFS 102305Z 05011G16KT 29/M12 A2967 RMK A01 T02941124  RH  006%=      5-min Rain = 0
KPFS 102310Z 05009KT 29/M12 A2968 RMK A01 T02921121  RH  006%=      5-min Rain = 0
KPFS 102315Z 05006KT 29/M12 A2968 RMK A01 T02901121  RH  006%=      5-min Rain = 0
KPFS 102320Z 03002KT 29/M12 A2968 RMK A01 T02891124  RH  006%=      5-min Rain = 0
KPFS 102325Z 06002KT 29/M12 A2969 RMK A01 T02871121  RH  006%=      5-min Rain = 0
KPFS 102330Z 07002KT 29/M12 A2969 RMK A01 T02851116  RH  007%=      5-min Rain = 0
KPFS 102335Z 11003KT 28/M11 A2969 RMK A01 T02821113  RH  007%=      5-min Rain = 0
KPFS 102340Z 11003KT 28/M11 A2969 RMK A01 T02791114  RH  007%=      5-min Rain = 0
KPFS 102345Z 10003KT 28/M12 A297 RMK A01 T02761116  RH  007%=      5-min Rain = 0
KPFS 102350Z 10004KT 27/M11 A297 RMK A01 T02731114  RH  007%=      5-min Rain = 0
KPFS 102355Z 09005KT 27/M11 A297 RMK A01 T02711113  RH  007%=      5-min Rain = 0
KPFS 110000Z 09004KT 27/M11 A297 RMK A01 T02681112  RH  007%=      5-min Rain = 0
KPFS 110005Z 08003KT 27/M11 A297 RMK A01 T02651111  RH  008%=      5-min Rain = 0
KPFS 110010Z 09006KT 26/M11 A297 RMK A01 T02581108  RH  008%=      5-min Rain = 0
KPFS 110015Z 09008KT 26/M11 A297 RMK A01 T02571110  RH  008%=      5-min Rain = 0
KPFS 110020Z 10009KT 26/M11 A297 RMK A01 T02561111  RH  008%=      5-min Rain = 0
KPFS 110025Z 09009KT 25/M11 A297 RMK A01 T02541111  RH  008%=      5-min Rain = 0
KPFS 110030Z 09008KT 26/M11 A297 RMK A01 T02551114  RH  008%=      5-min Rain = 0
KPFS 110035Z 10008KT 25/M11 A2971 RMK A01 T02501112  RH  008%=      5-min Rain = 0
KPFS 110040Z 10008KT 25/M11 A2971 RMK A01 T02481113  RH  008%=      5-min Rain = 0
KPFS 110045Z 10007KT 25/M11 A2971 RMK A01 T02471111  RH  009%=      5-min Rain = 0
KPFS 110050Z 10006KT 24/M11 A2971 RMK A01 T02401107  RH  009%=      5-min Rain = 0
KPFS 110055Z 11008KT 24/M10 A2971 RMK A01 T02381099  RH  010%=      5-min Rain = 0
KPFS 110100Z 11008KT 24/M09 A2972 RMK A01 T02361093  RH  011%=      5-min Rain = 0
KPFS 110105Z 10009KT 23/M09 A2972 RMK A01 T02331089  RH  011%=      5-min Rain = 0
KPFS 110110Z 10009KT 23/M09 A2972 RMK A01 T02271085  RH  012%=      5-min Rain = 0
KPFS 110115Z 10009KT 22/M08 A2972 RMK A01 T02241080  RH  013%=      5-min Rain = 0
KPFS 110120Z 11009KT 22/M08 A2972 RMK A01 T02241076  RH  013%=      5-min Rain = 0
KPFS 110125Z 11009KT 22/M07 A2972 RMK A01 T02241074  RH  013%=      5-min Rain = 0
KPFS 110130Z 11009KT 23/M07 A2972 RMK A01 T02251072  RH  013%=      5-min Rain = 0
KPFS 110135Z 10010KT 22/M07 A2972 RMK A01 T02241070  RH  014%=      5-min Rain = 0
KPFS 110140Z 10010KT 22/M07 A2972 RMK A01 T02231067  RH  014%=      5-min Rain = 0
KPFS 110145Z 11009KT 22/M07 A2973 RMK A01 T02241065  RH  014%=      5-min Rain = 0
KPFS 110150Z 11009KT 22/M06 A2973 RMK A01 T02221063  RH  014%=      5-min Rain = 0
KPFS 110155Z 11008KT 22/M06 A2973 RMK A01 T02221063  RH  014%=      5-min Rain = 0
KPFS 110200Z 16006KT 21/M07 A2974 RMK A01 T02101066  RH  015%=      5-min Rain = 0
KPFS 110205Z 22002KT 19/M07 A2974 RMK A01 T01881072  RH  017%=      5-min Rain = 0
KPFS 110210Z 33003KT 19/M08 A2974 RMK A01 T01851075  RH  017%=      5-min Rain = 0
KPFS 110215Z 00004KT 20/M07 A2975 RMK A01 T01961068  RH  016%=      5-min Rain = 0
KPFS 110220Z 01003KT 21/M07 A2975 RMK A01 T02051068  RH  015%=      5-min Rain = 0
KPFS 110225Z 36003KT 21/M07 A2975 RMK A01 T02081069  RH  015%=      5-min Rain = 0
KPFS 110230Z 35003KT 20/M07 A2975 RMK A01 T02021069  RH  016%=      5-min Rain = 0
KPFS 110235Z 35003KT 20/M07 A2976 RMK A01 T01991070  RH  016%=      5-min Rain = 0
KPFS 110240Z 33003KT 20/M07 A2975 RMK A01 T01981072  RH  016%=      5-min Rain = 0
KPFS 110245Z 01009KT 20/M07 A2976 RMK A01 T01961072  RH  016%=      5-min Rain = 0
KPFS 110250Z 02007KT 19/M07 A2976 RMK A01 T01871070  RH  017%=      5-min Rain = 0
KPFS 110255Z 03007KT 19/M07 A2976 RMK A01 T01851070  RH  017%=      5-min Rain = 0
KPFS 110300Z 04007KT 18/M07 A2976 RMK A01 T01821070  RH  018%=      5-min Rain = 0
KPFS 110305Z 03007KT 19/M07 A2976 RMK A01 T01871066  RH  018%=      5-min Rain = 0
KPFS 110310Z 03007KT 19/M07 A2976 RMK A01 T01911065  RH  017%=      5-min Rain = 0
KPFS 110315Z 01008KT 19/M07 A2977 RMK A01 T01871065  RH  018%=      5-min Rain = 0
KPFS 110320Z 01008KT 18/M07 A2977 RMK A01 T01811068  RH  018%=      5-min Rain = 0
KPFS 110325Z 01007KT 18/M07 A2977 RMK A01 T01811073  RH  017%=      5-min Rain = 0
KPFS 110330Z 03006KT 18/M07 A2978 RMK A01 T01761073  RH  018%=      5-min Rain = 0
KPFS 110335Z 02006KT 18/M07 A2978 RMK A01 T01771072  RH  018%=      5-min Rain = 0
KPFS 110340Z 02006KT 18/M07 A2978 RMK A01 T01761073  RH  018%=      5-min Rain = 0
KPFS 110345Z 01005KT 18/M08 A2978 RMK A01 T01751076  RH  018%=      5-min Rain = 0
KPFS 110350Z 03004KT 18/M08 A2978 RMK A01 T01771080  RH  017%=      5-min Rain = 0
KPFS 110355Z 05004KT 18/M08 A2978 RMK A01 T01791079  RH  017%=      5-min Rain = 0
KPFS 110400Z 04004KT 18/M08 A2979 RMK A01 T01821077  RH  017%=      5-min Rain = 0
KPFS 110405Z 35005G10KT 16/M08 A2979 RMK A01 T01641081  RH  018%=      5-min Rain = 0
KPFS 110410Z 04005KT 16/M08 A298 RMK A01 T01621084  RH  018%=      5-min Rain = 0
KPFS 110415Z 04006KT 17/M08 A298 RMK A01 T01651084  RH  017%=      5-min Rain = 0
KPFS 110420Z 04006KT 17/M08 A298 RMK A01 T01661081  RH  018%=      5-min Rain = 0
KPFS 110425Z 03007KT 17/M08 A298 RMK A01 T01661079  RH  018%=      5-min Rain = 0
KPFS 110430Z 02007KT 17/M08 A2981 RMK A01 T01661078  RH  018%=      5-min Rain = 0
KPFS 110435Z 03007KT 16/M08 A2981 RMK A01 T01641079  RH  018%=      5-min Rain = 0
KPFS 110440Z 02009KT 16/M08 A2981 RMK A01 T01601078  RH  019%=      5-min Rain = 0
KPFS 110445Z 01009KT 16/M08 A2982 RMK A01 T01601079  RH  019%=      5-min Rain = 0
KPFS 110450Z 36009KT 15/M08 A2983 RMK A01 T01531080  RH  020%=      5-min Rain = 0
KPFS 110455Z 00007KT 15/M08 A2983 RMK A01 T01521080  RH  020%=      5-min Rain = 0
KPFS 110500Z 01007KT 15/M08 A2982 RMK A01 T01541078  RH  020%=      5-min Rain = 0
KPFS 110505Z 36007KT 15/M08 A2983 RMK A01 T01501078  RH  020%=      5-min Rain = 0
KPFS 110510Z 36007KT 15/M08 A2983 RMK A01 T01461076  RH  021%=      5-min Rain = 0
KPFS 110515Z 01007KT 15/M07 A2983 RMK A01 T01481071  RH  022%=      5-min Rain = 0
KPFS 110520Z 02008G13KT 15/M06 A2983 RMK A01 T01501060  RH  023%=      5-min Rain = 0
KPFS 110525Z 02008KT 16/M03 A2983 RMK A01 T01581034  RH  027%=      5-min Rain = 0
KPFS 110530Z 02008KT 16/M03 A2984 RMK A01 T01601027  RH  028%=      5-min Rain = 0
KPFS 110535Z 02007KT 16/M03 A2984 RMK A01 T01601025  RH  028%=      5-min Rain = 0
KPFS 110540Z 02009KT 16/M02 A2984 RMK A01 T01591019  RH  030%=      5-min Rain = 0
KPFS 110545Z 02011KT 16/M01 A2985 RMK A01 T01601006  RH  033%=      5-min Rain = 0
KPFS 110550Z 02012KT 16/02 A2985 RMK A01 T01630019  RH  038%=      5-min Rain = 0
KPFS 110555Z 01011KT 16/03 A2986 RMK A01 T01640033  RH  042%=      5-min Rain = 0

Page generated in 0.009 seconds.